sensor_id;sensor_type;location;lat;lon;timestamp;P1;durP1;ratioP1;P2;durP2;ratioP2
21297;SDS011;10808;48.010;11.326;2024-02-28T00:00:39;27.80;;;19.02;;
21297;SDS011;10808;48.010;11.326;2024-02-28T00:03:05;27.52;;;19.10;;
21297;SDS011;10808;48.010;11.326;2024-02-28T00:05:31;28.02;;;18.92;;
21297;SDS011;10808;48.010;11.326;2024-02-28T00:07:57;28.42;;;19.45;;
21297;SDS011;10808;48.010;11.326;2024-02-28T00:10:23;31.45;;;19.70;;
21297;SDS011;10808;48.010;11.326;2024-02-28T00:12:49;30.45;;;20.10;;
21297;SDS011;10808;48.010;11.326;2024-02-28T00:15:15;30.92;;;20.40;;
21297;SDS011;10808;48.010;11.326;2024-02-28T00:17:41;29.48;;;20.35;;
21297;SDS011;10808;48.010;11.326;2024-02-28T00:20:07;32.47;;;20.13;;
21297;SDS011;10808;48.010;11.326;2024-02-28T00:22:35;31.10;;;20.27;;
21297;SDS011;10808;48.010;11.326;2024-02-28T00:25:02;29.57;;;20.50;;
21297;SDS011;10808;48.010;11.326;2024-02-28T00:27:28;29.27;;;20.10;;
21297;SDS011;10808;48.010;11.326;2024-02-28T00:29:54;30.97;;;20.23;;
21297;SDS011;10808;48.010;11.326;2024-02-28T00:32:21;29.08;;;20.08;;
21297;SDS011;10808;48.010;11.326;2024-02-28T00:34:47;32.88;;;20.80;;
21297;SDS011;10808;48.010;11.326;2024-02-28T00:37:13;30.00;;;19.37;;
21297;SDS011;10808;48.010;11.326;2024-02-28T00:39:39;27.63;;;19.23;;
21297;SDS011;10808;48.010;11.326;2024-02-28T00:42:05;30.95;;;20.17;;
21297;SDS011;10808;48.010;11.326;2024-02-28T00:44:31;33.03;;;20.48;;
21297;SDS011;10808;48.010;11.326;2024-02-28T00:46:57;28.40;;;19.58;;
21297;SDS011;10808;48.010;11.326;2024-02-28T00:49:23;29.30;;;19.55;;
21297;SDS011;10808;48.010;11.326;2024-02-28T00:51:49;28.92;;;19.58;;
21297;SDS011;10808;48.010;11.326;2024-02-28T00:54:15;30.83;;;20.02;;
21297;SDS011;10808;48.010;11.326;2024-02-28T00:56:41;28.48;;;19.30;;
21297;SDS011;10808;48.010;11.326;2024-02-28T00:59:07;30.20;;;19.20;;
21297;SDS011;10808;48.010;11.326;2024-02-28T01:01:36;28.65;;;19.88;;
21297;SDS011;10808;48.010;11.326;2024-02-28T01:04:02;30.15;;;20.17;;
21297;SDS011;10808;48.010;11.326;2024-02-28T01:06:28;29.30;;;19.58;;
21297;SDS011;10808;48.010;11.326;2024-02-28T01:08:54;27.65;;;19.10;;
21297;SDS011;10808;48.010;11.326;2024-02-28T01:11:20;27.17;;;19.17;;
21297;SDS011;10808;48.010;11.326;2024-02-28T01:13:46;29.52;;;19.92;;
21297;SDS011;10808;48.010;11.326;2024-02-28T01:16:12;34.35;;;21.63;;
21297;SDS011;10808;48.010;11.326;2024-02-28T01:18:38;29.65;;;19.88;;
21297;SDS011;10808;48.010;11.326;2024-02-28T01:21:04;29.87;;;20.30;;
21297;SDS011;10808;48.010;11.326;2024-02-28T01:23:30;28.42;;;19.55;;
21297;SDS011;10808;48.010;11.326;2024-02-28T01:25:57;29.52;;;19.60;;
21297;SDS011;10808;48.010;11.326;2024-02-28T01:28:23;29.35;;;20.67;;
21297;SDS011;10808;48.010;11.326;2024-02-28T01:30:49;29.00;;;19.60;;
21297;SDS011;10808;48.010;11.326;2024-02-28T01:33:15;28.20;;;19.55;;
21297;SDS011;10808;48.010;11.326;2024-02-28T01:35:41;28.20;;;19.23;;
21297;SDS011;10808;48.010;11.326;2024-02-28T01:38:07;27.88;;;18.95;;
21297;SDS011;10808;48.010;11.326;2024-02-28T01:40:33;33.20;;;21.42;;
21297;SDS011;10808;48.010;11.326;2024-02-28T01:43:02;31.85;;;20.77;;
21297;SDS011;10808;48.010;11.326;2024-02-28T01:45:29;30.45;;;20.00;;
21297;SDS011;10808;48.010;11.326;2024-02-28T01:47:55;30.35;;;20.65;;
21297;SDS011;10808;48.010;11.326;2024-02-28T01:50:21;31.30;;;20.45;;
21297;SDS011;10808;48.010;11.326;2024-02-28T01:52:47;32.50;;;21.35;;
21297;SDS011;10808;48.010;11.326;2024-02-28T01:55:14;31.35;;;20.73;;
21297;SDS011;10808;48.010;11.326;2024-02-28T01:57:40;30.40;;;20.65;;
21297;SDS011;10808;48.010;11.326;2024-02-28T02:00:06;28.50;;;19.25;;
21297;SDS011;10808;48.010;11.326;2024-02-28T02:02:35;31.27;;;20.60;;
21297;SDS011;10808;48.010;11.326;2024-02-28T02:05:01;34.25;;;22.13;;
21297;SDS011;10808;48.010;11.326;2024-02-28T02:07:28;35.58;;;22.85;;
21297;SDS011;10808;48.010;11.326;2024-02-28T02:09:54;34.83;;;22.70;;
21297;SDS011;10808;48.010;11.326;2024-02-28T02:12:21;34.00;;;22.42;;
21297;SDS011;10808;48.010;11.326;2024-02-28T02:14:48;32.90;;;22.25;;
21297;SDS011;10808;48.010;11.326;2024-02-28T02:17:14;33.70;;;22.13;;
21297;SDS011;10808;48.010;11.326;2024-02-28T02:19:40;34.25;;;21.52;;
21297;SDS011;10808;48.010;11.326;2024-02-28T02:22:08;31.80;;;21.52;;
21297;SDS011;10808;48.010;11.326;2024-02-28T02:24:35;34.25;;;22.80;;
21297;SDS011;10808;48.010;11.326;2024-02-28T02:27:02;34.55;;;22.85;;
21297;SDS011;10808;48.010;11.326;2024-02-28T02:29:30;36.20;;;22.95;;
21297;SDS011;10808;48.010;11.326;2024-02-28T02:31:56;32.75;;;22.60;;
21297;SDS011;10808;48.010;11.326;2024-02-28T02:34:22;32.38;;;22.52;;
21297;SDS011;10808;48.010;11.326;2024-02-28T02:36:49;35.28;;;22.58;;
21297;SDS011;10808;48.010;11.326;2024-02-28T02:39:15;34.40;;;22.80;;
21297;SDS011;10808;48.010;11.326;2024-02-28T02:41:41;34.33;;;22.98;;
21297;SDS011;10808;48.010;11.326;2024-02-28T02:44:07;37.53;;;23.45;;
21297;SDS011;10808;48.010;11.326;2024-02-28T02:46:33;36.30;;;23.15;;
21297;SDS011;10808;48.010;11.326;2024-02-28T02:48:59;35.20;;;23.90;;
21297;SDS011;10808;48.010;11.326;2024-02-28T02:51:25;38.42;;;24.55;;
21297;SDS011;10808;48.010;11.326;2024-02-28T02:53:52;35.83;;;23.30;;
21297;SDS011;10808;48.010;11.326;2024-02-28T02:56:19;35.17;;;22.85;;
21297;SDS011;10808;48.010;11.326;2024-02-28T02:58:45;36.53;;;23.13;;
21297;SDS011;10808;48.010;11.326;2024-02-28T03:01:11;37.10;;;23.70;;
21297;SDS011;10808;48.010;11.326;2024-02-28T03:03:37;36.22;;;23.38;;
21297;SDS011;10808;48.010;11.326;2024-02-28T03:06:04;34.10;;;22.25;;
21297;SDS011;10808;48.010;11.326;2024-02-28T03:08:30;38.93;;;24.43;;
21297;SDS011;10808;48.010;11.326;2024-02-28T03:10:57;37.60;;;24.08;;
21297;SDS011;10808;48.010;11.326;2024-02-28T03:13:23;36.83;;;24.02;;
21297;SDS011;10808;48.010;11.326;2024-02-28T03:15:49;41.25;;;24.30;;
21297;SDS011;10808;48.010;11.326;2024-02-28T03:18:15;37.97;;;24.20;;
21297;SDS011;10808;48.010;11.326;2024-02-28T03:20:42;42.15;;;24.73;;
21297;SDS011;10808;48.010;11.326;2024-02-28T03:23:08;40.25;;;24.20;;
21297;SDS011;10808;48.010;11.326;2024-02-28T03:25:35;38.85;;;24.58;;
21297;SDS011;10808;48.010;11.326;2024-02-28T03:28:01;38.40;;;23.83;;
21297;SDS011;10808;48.010;11.326;2024-02-28T03:30:27;38.58;;;24.58;;
21297;SDS011;10808;48.010;11.326;2024-02-28T03:32:53;39.63;;;24.42;;
21297;SDS011;10808;48.010;11.326;2024-02-28T03:35:19;37.08;;;23.85;;
21297;SDS011;10808;48.010;11.326;2024-02-28T03:37:45;40.97;;;24.95;;
21297;SDS011;10808;48.010;11.326;2024-02-28T03:40:11;41.15;;;24.17;;
21297;SDS011;10808;48.010;11.326;2024-02-28T03:42:37;40.67;;;24.73;;
21297;SDS011;10808;48.010;11.326;2024-02-28T03:45:03;43.67;;;26.30;;
21297;SDS011;10808;48.010;11.326;2024-02-28T03:47:30;42.20;;;25.65;;
21297;SDS011;10808;48.010;11.326;2024-02-28T03:49:56;41.28;;;25.40;;
21297;SDS011;10808;48.010;11.326;2024-02-28T03:52:23;40.92;;;25.27;;
21297;SDS011;10808;48.010;11.326;2024-02-28T03:54:49;40.20;;;24.85;;
21297;SDS011;10808;48.010;11.326;2024-02-28T03:57:15;41.37;;;25.10;;
21297;SDS011;10808;48.010;11.326;2024-02-28T03:59:41;40.50;;;24.88;;
21297;SDS011;10808;48.010;11.326;2024-02-28T04:02:07;40.38;;;25.23;;
21297;SDS011;10808;48.010;11.326;2024-02-28T04:04:33;41.83;;;25.33;;
21297;SDS011;10808;48.010;11.326;2024-02-28T04:06:59;41.70;;;25.00;;
21297;SDS011;10808;48.010;11.326;2024-02-28T04:09:25;45.47;;;27.05;;
21297;SDS011;10808;48.010;11.326;2024-02-28T04:11:51;43.20;;;26.65;;
21297;SDS011;10808;48.010;11.326;2024-02-28T04:14:17;41.17;;;25.63;;
21297;SDS011;10808;48.010;11.326;2024-02-28T04:16:43;46.57;;;26.93;;
21297;SDS011;10808;48.010;11.326;2024-02-28T04:19:10;50.78;;;27.33;;
21297;SDS011;10808;48.010;11.326;2024-02-28T04:21:37;48.45;;;27.85;;
21297;SDS011;10808;48.010;11.326;2024-02-28T04:24:04;48.00;;;28.35;;
21297;SDS011;10808;48.010;11.326;2024-02-28T04:26:31;45.70;;;26.90;;
21297;SDS011;10808;48.010;11.326;2024-02-28T04:28:57;43.70;;;26.70;;
21297;SDS011;10808;48.010;11.326;2024-02-28T04:31:24;44.55;;;25.30;;
21297;SDS011;10808;48.010;11.326;2024-02-28T04:33:50;44.75;;;26.88;;
21297;SDS011;10808;48.010;11.326;2024-02-28T04:36:16;49.28;;;28.13;;
21297;SDS011;10808;48.010;11.326;2024-02-28T04:38:42;49.75;;;28.80;;
21297;SDS011;10808;48.010;11.326;2024-02-28T04:41:08;47.35;;;27.20;;
21297;SDS011;10808;48.010;11.326;2024-02-28T04:43:34;47.97;;;27.40;;
21297;SDS011;10808;48.010;11.326;2024-02-28T04:46:00;50.05;;;27.73;;
21297;SDS011;10808;48.010;11.326;2024-02-28T04:48:28;47.40;;;27.13;;
21297;SDS011;10808;48.010;11.326;2024-02-28T04:50:54;43.60;;;27.10;;
21297;SDS011;10808;48.010;11.326;2024-02-28T04:53:20;46.17;;;27.65;;
21297;SDS011;10808;48.010;11.326;2024-02-28T04:55:46;46.85;;;26.83;;
21297;SDS011;10808;48.010;11.326;2024-02-28T04:58:12;46.83;;;28.10;;
21297;SDS011;10808;48.010;11.326;2024-02-28T05:00:39;44.72;;;26.38;;
21297;SDS011;10808;48.010;11.326;2024-02-28T05:03:05;44.33;;;27.20;;
21297;SDS011;10808;48.010;11.326;2024-02-28T05:05:31;48.20;;;26.73;;
21297;SDS011;10808;48.010;11.326;2024-02-28T05:07:57;49.85;;;28.15;;
21297;SDS011;10808;48.010;11.326;2024-02-28T05:10:23;45.58;;;27.50;;
21297;SDS011;10808;48.010;11.326;2024-02-28T05:12:49;52.30;;;28.58;;
21297;SDS011;10808;48.010;11.326;2024-02-28T05:15:15;47.97;;;28.48;;
21297;SDS011;10808;48.010;11.326;2024-02-28T05:17:42;47.70;;;27.95;;
21297;SDS011;10808;48.010;11.326;2024-02-28T05:20:08;48.15;;;27.60;;
21297;SDS011;10808;48.010;11.326;2024-02-28T05:22:35;48.95;;;28.58;;
21297;SDS011;10808;48.010;11.326;2024-02-28T05:25:01;48.10;;;27.25;;
21297;SDS011;10808;48.010;11.326;2024-02-28T05:27:27;48.63;;;28.60;;
21297;SDS011;10808;48.010;11.326;2024-02-28T05:29:53;48.33;;;27.67;;
21297;SDS011;10808;48.010;11.326;2024-02-28T05:32:19;49.08;;;28.40;;
21297;SDS011;10808;48.010;11.326;2024-02-28T05:34:46;48.58;;;28.10;;
21297;SDS011;10808;48.010;11.326;2024-02-28T05:37:12;51.30;;;29.35;;
21297;SDS011;10808;48.010;11.326;2024-02-28T05:39:38;46.88;;;28.00;;
21297;SDS011;10808;48.010;11.326;2024-02-28T05:42:04;46.17;;;27.20;;
21297;SDS011;10808;48.010;11.326;2024-02-28T05:44:30;47.42;;;27.27;;
21297;SDS011;10808;48.010;11.326;2024-02-28T05:46:57;44.87;;;27.80;;
21297;SDS011;10808;48.010;11.326;2024-02-28T05:49:23;45.90;;;27.70;;
21297;SDS011;10808;48.010;11.326;2024-02-28T05:51:49;48.03;;;28.17;;
21297;SDS011;10808;48.010;11.326;2024-02-28T05:54:15;46.93;;;28.00;;
21297;SDS011;10808;48.010;11.326;2024-02-28T05:56:41;50.17;;;28.48;;
21297;SDS011;10808;48.010;11.326;2024-02-28T05:59:07;47.88;;;27.75;;
21297;SDS011;10808;48.010;11.326;2024-02-28T06:01:33;48.63;;;28.45;;
21297;SDS011;10808;48.010;11.326;2024-02-28T06:03:59;48.87;;;28.90;;
21297;SDS011;10808;48.010;11.326;2024-02-28T06:06:25;46.72;;;28.38;;
21297;SDS011;10808;48.010;11.326;2024-02-28T06:08:51;49.70;;;27.92;;
21297;SDS011;10808;48.010;11.326;2024-02-28T06:11:17;50.20;;;29.17;;
21297;SDS011;10808;48.010;11.326;2024-02-28T06:13:43;52.80;;;29.63;;
21297;SDS011;10808;48.010;11.326;2024-02-28T06:16:15;51.20;;;29.90;;
21297;SDS011;10808;48.010;11.326;2024-02-28T06:18:43;50.65;;;29.35;;
21297;SDS011;10808;48.010;11.326;2024-02-28T06:21:09;52.67;;;29.55;;
21297;SDS011;10808;48.010;11.326;2024-02-28T06:23:35;52.05;;;29.38;;
21297;SDS011;10808;48.010;11.326;2024-02-28T06:26:01;52.77;;;29.73;;
21297;SDS011;10808;48.010;11.326;2024-02-28T06:28:27;51.15;;;29.20;;
21297;SDS011;10808;48.010;11.326;2024-02-28T06:30:53;51.60;;;29.60;;
21297;SDS011;10808;48.010;11.326;2024-02-28T06:33:19;52.97;;;30.33;;
21297;SDS011;10808;48.010;11.326;2024-02-28T06:35:45;55.40;;;31.07;;
21297;SDS011;10808;48.010;11.326;2024-02-28T06:38:12;54.80;;;29.88;;
21297;SDS011;10808;48.010;11.326;2024-02-28T06:40:38;51.15;;;29.30;;
21297;SDS011;10808;48.010;11.326;2024-02-28T06:43:04;53.47;;;29.85;;
21297;SDS011;10808;48.010;11.326;2024-02-28T06:45:30;56.60;;;31.13;;
21297;SDS011;10808;48.010;11.326;2024-02-28T06:47:57;54.55;;;29.75;;
21297;SDS011;10808;48.010;11.326;2024-02-28T06:50:23;53.30;;;30.08;;
21297;SDS011;10808;48.010;11.326;2024-02-28T06:52:49;52.97;;;30.13;;
21297;SDS011;10808;48.010;11.326;2024-02-28T06:55:15;55.10;;;30.35;;
21297;SDS011;10808;48.010;11.326;2024-02-28T06:57:41;54.47;;;29.65;;
21297;SDS011;10808;48.010;11.326;2024-02-28T07:00:09;54.50;;;30.73;;
21297;SDS011;10808;48.010;11.326;2024-02-28T07:02:40;54.53;;;31.08;;
21297;SDS011;10808;48.010;11.326;2024-02-28T07:05:06;56.33;;;31.57;;
21297;SDS011;10808;48.010;11.326;2024-02-28T07:07:33;55.85;;;31.27;;
21297;SDS011;10808;48.010;11.326;2024-02-28T07:09:59;54.67;;;30.65;;
21297;SDS011;10808;48.010;11.326;2024-02-28T07:12:25;54.33;;;31.27;;
21297;SDS011;10808;48.010;11.326;2024-02-28T07:14:51;51.10;;;30.08;;
21297;SDS011;10808;48.010;11.326;2024-02-28T07:17:17;52.65;;;30.35;;
21297;SDS011;10808;48.010;11.326;2024-02-28T07:19:43;55.88;;;30.77;;
21297;SDS011;10808;48.010;11.326;2024-02-28T07:22:09;55.63;;;30.83;;
21297;SDS011;10808;48.010;11.326;2024-02-28T07:24:35;54.95;;;30.58;;
21297;SDS011;10808;48.010;11.326;2024-02-28T07:27:03;52.40;;;29.73;;
21297;SDS011;10808;48.010;11.326;2024-02-28T07:29:29;56.67;;;31.30;;
21297;SDS011;10808;48.010;11.326;2024-02-28T07:31:55;55.25;;;30.42;;
21297;SDS011;10808;48.010;11.326;2024-02-28T07:34:22;54.72;;;30.67;;
21297;SDS011;10808;48.010;11.326;2024-02-28T07:36:48;53.80;;;31.67;;
21297;SDS011;10808;48.010;11.326;2024-02-28T07:39:14;53.08;;;30.80;;
21297;SDS011;10808;48.010;11.326;2024-02-28T07:41:40;54.93;;;31.83;;
21297;SDS011;10808;48.010;11.326;2024-02-28T07:44:07;55.33;;;30.83;;
21297;SDS011;10808;48.010;11.326;2024-02-28T07:46:34;52.17;;;30.85;;
21297;SDS011;10808;48.010;11.326;2024-02-28T07:49:00;58.10;;;32.50;;
21297;SDS011;10808;48.010;11.326;2024-02-28T07:51:27;58.20;;;31.30;;
21297;SDS011;10808;48.010;11.326;2024-02-28T07:53:53;56.42;;;31.42;;
21297;SDS011;10808;48.010;11.326;2024-02-28T07:56:20;60.28;;;33.33;;
21297;SDS011;10808;48.010;11.326;2024-02-28T07:58:47;60.85;;;32.70;;
21297;SDS011;10808;48.010;11.326;2024-02-28T08:01:14;62.67;;;33.58;;
21297;SDS011;10808;48.010;11.326;2024-02-28T08:03:42;63.58;;;34.55;;
21297;SDS011;10808;48.010;11.326;2024-02-28T08:06:08;67.65;;;34.85;;
21297;SDS011;10808;48.010;11.326;2024-02-28T08:08:35;66.43;;;35.63;;
21297;SDS011;10808;48.010;11.326;2024-02-28T08:11:02;64.40;;;35.05;;
21297;SDS011;10808;48.010;11.326;2024-02-28T08:13:28;62.97;;;33.95;;
21297;SDS011;10808;48.010;11.326;2024-02-28T08:15:55;62.10;;;33.53;;
21297;SDS011;10808;48.010;11.326;2024-02-28T08:18:21;64.15;;;32.72;;
21297;SDS011;10808;48.010;11.326;2024-02-28T08:20:47;61.22;;;32.47;;
21297;SDS011;10808;48.010;11.326;2024-02-28T08:23:15;56.30;;;31.15;;
21297;SDS011;10808;48.010;11.326;2024-02-28T08:25:41;54.75;;;30.20;;
21297;SDS011;10808;48.010;11.326;2024-02-28T08:28:07;57.90;;;32.17;;
21297;SDS011;10808;48.010;11.326;2024-02-28T08:30:33;66.15;;;33.88;;
21297;SDS011;10808;48.010;11.326;2024-02-28T08:32:59;58.60;;;31.95;;
21297;SDS011;10808;48.010;11.326;2024-02-28T08:35:25;60.37;;;33.53;;
21297;SDS011;10808;48.010;11.326;2024-02-28T08:37:52;62.45;;;34.10;;
21297;SDS011;10808;48.010;11.326;2024-02-28T08:40:18;59.47;;;33.08;;
21297;SDS011;10808;48.010;11.326;2024-02-28T08:42:44;63.33;;;33.95;;
21297;SDS011;10808;48.010;11.326;2024-02-28T08:45:11;60.25;;;33.33;;
21297;SDS011;10808;48.010;11.326;2024-02-28T08:47:37;59.15;;;34.40;;
21297;SDS011;10808;48.010;11.326;2024-02-28T08:50:03;65.65;;;34.80;;
21297;SDS011;10808;48.010;11.326;2024-02-28T08:52:30;64.43;;;35.58;;
21297;SDS011;10808;48.010;11.326;2024-02-28T08:54:56;67.38;;;35.55;;
21297;SDS011;10808;48.010;11.326;2024-02-28T08:57:25;68.10;;;35.58;;
21297;SDS011;10808;48.010;11.326;2024-02-28T08:59:51;65.57;;;33.55;;
21297;SDS011;10808;48.010;11.326;2024-02-28T09:02:17;66.53;;;34.08;;
21297;SDS011;10808;48.010;11.326;2024-02-28T09:04:43;68.95;;;36.45;;
21297;SDS011;10808;48.010;11.326;2024-02-28T09:07:09;65.47;;;34.85;;
21297;SDS011;10808;48.010;11.326;2024-02-28T09:09:35;68.93;;;34.28;;
21297;SDS011;10808;48.010;11.326;2024-02-28T09:12:03;70.53;;;34.67;;
21297;SDS011;10808;48.010;11.326;2024-02-28T09:14:29;66.45;;;34.88;;
21297;SDS011;10808;48.010;11.326;2024-02-28T09:16:56;60.90;;;32.83;;
21297;SDS011;10808;48.010;11.326;2024-02-28T09:19:29;61.70;;;32.80;;
21297;SDS011;10808;48.010;11.326;2024-02-28T09:21:55;57.23;;;31.20;;
21297;SDS011;10808;48.010;11.326;2024-02-28T09:24:23;56.83;;;30.77;;
21297;SDS011;10808;48.010;11.326;2024-02-28T09:26:52;58.60;;;31.08;;
21297;SDS011;10808;48.010;11.326;2024-02-28T09:29:18;57.33;;;30.55;;
21297;SDS011;10808;48.010;11.326;2024-02-28T09:31:44;63.42;;;32.22;;
21297;SDS011;10808;48.010;11.326;2024-02-28T09:34:10;58.80;;;31.70;;
21297;SDS011;10808;48.010;11.326;2024-02-28T09:36:40;58.60;;;30.83;;
21297;SDS011;10808;48.010;11.326;2024-02-28T09:39:07;55.63;;;30.80;;
21297;SDS011;10808;48.010;11.326;2024-02-28T09:41:34;57.20;;;31.05;;
21297;SDS011;10808;48.010;11.326;2024-02-28T09:44:00;54.15;;;29.00;;
21297;SDS011;10808;48.010;11.326;2024-02-28T09:46:28;55.50;;;29.88;;
21297;SDS011;10808;48.010;11.326;2024-02-28T09:48:55;52.70;;;30.75;;
21297;SDS011;10808;48.010;11.326;2024-02-28T09:51:21;50.72;;;28.67;;
21297;SDS011;10808;48.010;11.326;2024-02-28T09:53:50;48.92;;;28.33;;
21297;SDS011;10808;48.010;11.326;2024-02-28T09:56:16;48.55;;;27.73;;
21297;SDS011;10808;48.010;11.326;2024-02-28T09:58:42;50.70;;;27.95;;
21297;SDS011;10808;48.010;11.326;2024-02-28T10:01:09;51.08;;;28.80;;
21297;SDS011;10808;48.010;11.326;2024-02-28T10:03:40;51.63;;;28.50;;
21297;SDS011;10808;48.010;11.326;2024-02-28T10:06:08;50.58;;;28.65;;
21297;SDS011;10808;48.010;11.326;2024-02-28T10:08:35;49.65;;;29.23;;
21297;SDS011;10808;48.010;11.326;2024-02-28T10:11:02;51.67;;;29.23;;
21297;SDS011;10808;48.010;11.326;2024-02-28T10:13:29;50.93;;;28.90;;
21297;SDS011;10808;48.010;11.326;2024-02-28T10:15:55;48.00;;;27.95;;
21297;SDS011;10808;48.010;11.326;2024-02-28T10:18:21;51.65;;;29.38;;
21297;SDS011;10808;48.010;11.326;2024-02-28T10:20:47;50.97;;;28.75;;
21297;SDS011;10808;48.010;11.326;2024-02-28T10:23:13;46.83;;;27.20;;
21297;SDS011;10808;48.010;11.326;2024-02-28T10:25:46;48.35;;;27.95;;
21297;SDS011;10808;48.010;11.326;2024-02-28T10:28:13;47.28;;;27.75;;
21297;SDS011;10808;48.010;11.326;2024-02-28T10:30:40;49.42;;;28.02;;
21297;SDS011;10808;48.010;11.326;2024-02-28T10:33:10;50.17;;;28.83;;
21297;SDS011;10808;48.010;11.326;2024-02-28T10:35:43;49.65;;;29.08;;
21297;SDS011;10808;48.010;11.326;2024-02-28T10:38:12;52.70;;;29.73;;
21297;SDS011;10808;48.010;11.326;2024-02-28T10:40:39;51.60;;;29.87;;
21297;SDS011;10808;48.010;11.326;2024-02-28T10:43:07;45.05;;;27.38;;
21297;SDS011;10808;48.010;11.326;2024-02-28T10:45:35;45.37;;;26.93;;
21297;SDS011;10808;48.010;11.326;2024-02-28T10:48:05;44.92;;;26.38;;
21297;SDS011;10808;48.010;11.326;2024-02-28T10:50:32;42.00;;;25.90;;
21297;SDS011;10808;48.010;11.326;2024-02-28T10:53:14;42.15;;;25.98;;
21297;SDS011;10808;48.010;11.326;2024-02-28T10:55:41;45.45;;;26.67;;
21297;SDS011;10808;48.010;11.326;2024-02-28T10:58:09;40.97;;;25.20;;
21297;SDS011;10808;48.010;11.326;2024-02-28T11:00:36;45.50;;;26.83;;
21297;SDS011;10808;48.010;11.326;2024-02-28T11:03:04;45.70;;;27.05;;
21297;SDS011;10808;48.010;11.326;2024-02-28T11:05:38;44.78;;;27.05;;
21297;SDS011;10808;48.010;11.326;2024-02-28T11:08:09;47.28;;;27.35;;
21297;SDS011;10808;48.010;11.326;2024-02-28T11:10:42;47.53;;;28.20;;
21297;SDS011;10808;48.010;11.326;2024-02-28T11:13:10;45.05;;;26.38;;
21297;SDS011;10808;48.010;11.326;2024-02-28T11:15:46;44.72;;;26.23;;
21297;SDS011;10808;48.010;11.326;2024-02-28T11:18:12;44.53;;;26.70;;
21297;SDS011;10808;48.010;11.326;2024-02-28T11:20:38;44.95;;;26.25;;
21297;SDS011;10808;48.010;11.326;2024-02-28T11:23:07;44.10;;;26.50;;
21297;SDS011;10808;48.010;11.326;2024-02-28T11:25:34;44.20;;;26.30;;
21297;SDS011;10808;48.010;11.326;2024-02-28T11:28:01;45.20;;;26.37;;
21297;SDS011;10808;48.010;11.326;2024-02-28T11:30:27;42.30;;;25.50;;
21297;SDS011;10808;48.010;11.326;2024-02-28T11:32:53;44.92;;;27.15;;
21297;SDS011;10808;48.010;11.326;2024-02-28T11:35:20;44.78;;;26.80;;
21297;SDS011;10808;48.010;11.326;2024-02-28T11:37:46;45.15;;;27.33;;
21297;SDS011;10808;48.010;11.326;2024-02-28T11:40:13;45.42;;;26.95;;
21297;SDS011;10808;48.010;11.326;2024-02-28T11:42:40;47.40;;;27.77;;
21297;SDS011;10808;48.010;11.326;2024-02-28T11:45:09;48.95;;;27.75;;
21297;SDS011;10808;48.010;11.326;2024-02-28T11:47:35;49.10;;;28.40;;
21297;SDS011;10808;48.010;11.326;2024-02-28T11:50:02;53.78;;;30.02;;
21297;SDS011;10808;48.010;11.326;2024-02-28T11:52:31;50.17;;;28.75;;
21297;SDS011;10808;48.010;11.326;2024-02-28T11:54:58;50.85;;;29.58;;
21297;SDS011;10808;48.010;11.326;2024-02-28T11:57:28;48.60;;;29.20;;
21297;SDS011;10808;48.010;11.326;2024-02-28T11:59:56;50.85;;;29.77;;
21297;SDS011;10808;48.010;11.326;2024-02-28T12:02:22;47.33;;;28.40;;
21297;SDS011;10808;48.010;11.326;2024-02-28T12:04:52;50.65;;;29.67;;
21297;SDS011;10808;48.010;11.326;2024-02-28T12:07:20;51.78;;;29.88;;
21297;SDS011;10808;48.010;11.326;2024-02-28T12:09:46;52.65;;;30.55;;
21297;SDS011;10808;48.010;11.326;2024-02-28T12:12:13;51.17;;;31.15;;
21297;SDS011;10808;48.010;11.326;2024-02-28T12:14:40;54.33;;;29.87;;
21297;SDS011;10808;48.010;11.326;2024-02-28T12:17:08;54.40;;;30.08;;
21297;SDS011;10808;48.010;11.326;2024-02-28T12:19:34;50.97;;;29.87;;
21297;SDS011;10808;48.010;11.326;2024-02-28T12:22:00;51.88;;;29.90;;
21297;SDS011;10808;48.010;11.326;2024-02-28T12:24:26;48.70;;;29.42;;
21297;SDS011;10808;48.010;11.326;2024-02-28T12:26:52;49.13;;;30.27;;
21297;SDS011;10808;48.010;11.326;2024-02-28T12:29:18;51.87;;;30.70;;
21297;SDS011;10808;48.010;11.326;2024-02-28T12:31:44;51.17;;;30.02;;
21297;SDS011;10808;48.010;11.326;2024-02-28T12:34:11;53.40;;;31.23;;
21297;SDS011;10808;48.010;11.326;2024-02-28T12:36:37;53.38;;;30.13;;
21297;SDS011;10808;48.010;11.326;2024-02-28T12:39:03;53.13;;;30.25;;
21297;SDS011;10808;48.010;11.326;2024-02-28T12:41:31;55.38;;;29.75;;
21297;SDS011;10808;48.010;11.326;2024-02-28T12:43:57;53.63;;;30.40;;
21297;SDS011;10808;48.010;11.326;2024-02-28T12:46:23;53.58;;;30.15;;
21297;SDS011;10808;48.010;11.326;2024-02-28T12:48:49;54.38;;;30.30;;
21297;SDS011;10808;48.010;11.326;2024-02-28T12:54:07;62.27;;;34.60;;
21297;SDS011;10808;48.010;11.326;2024-02-28T12:56:34;53.58;;;28.88;;
21297;SDS011;10808;48.010;11.326;2024-02-28T12:59:02;54.38;;;29.80;;
21297;SDS011;10808;48.010;11.326;2024-02-28T13:01:28;53.78;;;29.80;;
21297;SDS011;10808;48.010;11.326;2024-02-28T13:03:55;53.28;;;28.92;;
21297;SDS011;10808;48.010;11.326;2024-02-28T13:06:21;50.28;;;28.90;;
21297;SDS011;10808;48.010;11.326;2024-02-28T13:08:48;52.05;;;29.20;;
21297;SDS011;10808;48.010;11.326;2024-02-28T13:11:20;52.72;;;29.77;;
21297;SDS011;10808;48.010;11.326;2024-02-28T13:13:51;57.13;;;30.67;;
21297;SDS011;10808;48.010;11.326;2024-02-28T13:16:18;52.33;;;29.35;;
21297;SDS011;10808;48.010;11.326;2024-02-28T13:18:45;49.33;;;28.20;;
21297;SDS011;10808;48.010;11.326;2024-02-28T13:21:11;51.90;;;29.00;;
21297;SDS011;10808;48.010;11.326;2024-02-28T13:23:37;54.95;;;29.60;;
21297;SDS011;10808;48.010;11.326;2024-02-28T13:26:04;51.95;;;29.30;;
21297;SDS011;10808;48.010;11.326;2024-02-28T13:28:31;53.05;;;29.52;;
21297;SDS011;10808;48.010;11.326;2024-02-28T13:30:58;49.73;;;28.27;;
21297;SDS011;10808;48.010;11.326;2024-02-28T13:33:25;50.00;;;28.63;;
21297;SDS011;10808;48.010;11.326;2024-02-28T13:35:52;49.10;;;27.90;;
21297;SDS011;10808;48.010;11.326;2024-02-28T13:38:19;48.20;;;28.97;;
21297;SDS011;10808;48.010;11.326;2024-02-28T13:40:46;50.50;;;28.65;;
21297;SDS011;10808;48.010;11.326;2024-02-28T13:43:13;48.70;;;28.25;;
21297;SDS011;10808;48.010;11.326;2024-02-28T13:45:39;50.40;;;28.83;;
21297;SDS011;10808;48.010;11.326;2024-02-28T13:48:18;53.03;;;29.95;;
21297;SDS011;10808;48.010;11.326;2024-02-28T13:50:49;51.88;;;30.20;;
21297;SDS011;10808;48.010;11.326;2024-02-28T13:53:15;50.65;;;29.27;;
21297;SDS011;10808;48.010;11.326;2024-02-28T13:55:42;46.15;;;28.23;;
21297;SDS011;10808;48.010;11.326;2024-02-28T13:58:09;53.53;;;29.95;;
21297;SDS011;10808;48.010;11.326;2024-02-28T14:00:36;50.63;;;28.60;;
21297;SDS011;10808;48.010;11.326;2024-02-28T14:03:03;57.63;;;31.63;;
21297;SDS011;10808;48.010;11.326;2024-02-28T14:05:30;54.15;;;29.88;;
21297;SDS011;10808;48.010;11.326;2024-02-28T14:07:56;54.33;;;31.08;;